Airport View

Enter AWOS ICAO identifier for current METAR.

ex. KFNL

KMPZ 262348Z AUTO 32007G14KT 10SM BKN047 00/M07 A3023 RMK AO2

26 Feb 2020 23:48

Frequency: 119.325

Phone: 319-385-4926

Other Area AWOS: KFSW - KBRL - KAWG - KFFL

TAF KBRL 261723Z 2618/2718 34015G20KT P6SM SCT035 OVC080 FM262100 34014KT P6SM OVC040 FM270300 32008KT P6SM SKC FM271500 22005KT P6SM BKN120